Austinville, IA

2:56 PM CST on March 02, 2015 (GMT -0600)
IADOT Steamboat Rock (US20) | Change Station
CLOSE
Current Station
Personal Weather Station
Location: Steamboat Rock, IA
Elevation: 1049 ft
Nearby Weather Stations

Elev 1049 ft 42.45 °N, 93.06 °W | Updated 32 minutes ago

Overcast
Overcast
24 °F
Feels Like 14 °F
N
9
Wind Variable Wind from ESE
Gusts 11.0 mph

Today
High -- | Low -- °F
--% Chance of Precip.
Yesterday
High -- | Low -- °F
Precip. -- in
6:46 AM 6:02 PM
Waxing Gibbous, 93% visible
Pressure 30.36 in
Visibility 10.0 miles
Clouds Overcast 10000 ft
Windchill 14 °F
Dew Point 14 °F
Humidity 66%
Rainfall -999.00 in
Snow Depth Not available.
UV 1 out of 12
Pollen .50 out of 12
Air Quality Not available.
Flu Activity Not available.
METAR KIFA 022035Z AUTO 12007KT 10SM OVC100 M04/M10 A3036 RMK AO2 T10451096

More Conditions Fewer Conditions

Pressure 30.36 in
Visibility 10.0 miles
Clouds Overcast 10000 ft
Windchill 14 °F
Dew Point 14 °F
Humidity 66%
Rainfall -999.00 in
Snow Depth Not available.
UV 1 out of 12
Pollen .50 out of 12
Air Quality Not available.
Flu Activity Not available.
METAR KIFA 022035Z AUTO 12007KT 10SM OVC100 M04/M10 A3036 RMK AO2 T10451096

More Conditions Fewer Conditions

10-Day Weather Forecast

Almanac

Astronomy

Mar. 02, 2015 Rise Set
Actual Time
Civil Twilight
Nautical Twilight
Astronomical Twilight
Moon
Length of Visible Light
Length of Day
Tomorrow will be .
, % of the Moon is Illuminated

Today's Extremes

State Highs State Lows

Community

WunderPhotos

Upload Photos

1,801,941 photos uploaded!

WunderBlogs® & News

Nearby

Air Quality

  Air Quality AQ Index Pollutant
Not available.

Snow Depth

Station Depth Elevation

Earthquake Activity

City Distance Mag. Time & Date
Minimum magnitude displayed is 2.5.

Coastal Water Temperatures

Place Temperature

Nearby Weather Stations